Time;durP1;ratioP1;P1;durP2;ratioP2;P2;SDS_P1;SDS_P2;PMS_P1;PMS_P2;Temp;Humidity;BMP_temperature;BMP_pressure;BME280_temperature;BME280_humidity;BME280_pressure;Samples;Min_cycle;Max_cycle;Signal;HPM_P1;HPM_P2
2024/04/18 00:01:27;;;;;;;8.98;0.40;;;;;;;2.11;51.56;101441.63;5395493;26;20088;-73
2024/04/18 00:03:53;;;;;;;0.60;0.28;;;;;;;2.07;51.36;101450.19;5399975;26;20014;-73
2024/04/18 00:06:18;;;;;;;3.63;0.30;;;;;;;2.04;51.31;101445.91;5390926;26;20003;-72
2024/04/18 00:08:44;;;;;;;4.75;0.32;;;;;;;2.02;51.35;101446.72;5395397;25;20026;-70
2024/04/18 00:11:24;;;;;;;1.48;0.20;;;;;;;1.98;51.68;101445.00;5387013;26;21154;-69
2024/04/18 00:13:50;;;;;;;2.85;0.30;;;;;;;1.92;52.02;101450.97;5379274;26;20690;-69
2024/04/18 00:16:34;;;;;;;3.10;0.35;;;;;;;1.89;52.22;101441.50;5334895;26;20054;-69
2024/04/18 00:19:15;;;;;;;5.70;1.08;;;;;;;2.04;52.09;101447.59;5378342;26;20022;-70
2024/04/18 00:21:55;;;;;;;1.10;0.45;;;;;;;2.06;52.24;101443.31;5400531;26;20003;-69
2024/04/18 00:24:29;;;;;;;5.15;0.25;;;;;;;2.04;52.32;101435.59;5390021;25;21985;-70
2024/04/18 00:26:55;;;;;;;4.57;0.17;;;;;;;2.16;52.39;101439.91;5394573;26;20046;-69
2024/04/18 00:29:31;;;;;;;5.40;0.82;;;;;;;2.21;52.32;101443.38;5390014;26;20025;-70
2024/04/18 00:32:07;;;;;;;3.75;0.60;;;;;;;2.22;52.41;101445.13;5395189;26;20020;-69
2024/04/18 00:34:33;;;;;;;3.47;0.40;;;;;;;2.33;52.50;101448.59;5354061;26;20011;-69
2024/04/18 00:36:58;;;;;;;4.05;0.85;;;;;;;2.35;52.18;101446.88;5352687;26;20022;-68
2024/04/18 00:39:24;;;;;;;5.10;0.40;;;;;;;2.41;52.13;101442.59;5352654;26;20022;-67
2024/04/18 00:41:59;;;;;;;0.88;0.20;;;;;;;2.42;52.17;101454.63;5338392;26;20645;-69
2024/04/18 00:44:30;;;;;;;1.67;0.20;;;;;;;2.41;51.92;101447.75;5352878;26;20008;-68
2024/04/18 00:47:13;;;;;;;5.40;0.20;;;;;;;2.32;52.52;101457.16;5358676;26;20076;-68
2024/04/18 00:49:39;;;;;;;3.63;0.25;;;;;;;2.32;52.41;101449.44;5355687;26;21069;-68
2024/04/18 00:52:05;;;;;;;5.13;0.40;;;;;;;2.35;52.37;101457.19;5365135;26;20003;-69
2024/04/18 00:54:31;;;;;;;5.43;0.35;;;;;;;2.27;52.43;101453.72;5384391;26;20003;-69
2024/04/18 00:56:59;;;;;;;5.55;0.20;;;;;;;2.27;52.95;101450.28;5357132;26;20345;-67
2024/04/18 00:59:25;;;;;;;3.20;0.52;;;;;;;2.28;52.78;101450.28;5364645;26;20979;-68
2024/04/18 01:02:11;;;;;;;3.30;0.20;;;;;;;2.21;52.73;101445.94;5386935;26;20047;-67
2024/04/18 01:04:38;;;;;;;3.35;0.30;;;;;;;2.17;52.46;101445.94;5393503;26;20145;-71
2024/04/18 01:07:10;;;;;;;6.47;0.38;;;;;;;2.07;52.89;101450.19;5389207;26;20047;-70
2024/04/18 01:09:44;;;;;;;6.05;0.20;;;;;;;2.01;52.78;101455.31;5370591;26;20013;-70
2024/04/18 01:12:09;;;;;;;3.88;0.55;;;;;;;1.92;52.86;101451.81;5396055;26;20038;-71
2024/04/18 01:14:36;;;;;;;10.20;1.45;;;;;;;1.89;53.34;101451.81;5349011;26;20012;-69
2024/04/18 01:17:03;;;;;;;3.20;0.30;;;;;;;1.84;53.31;101457.78;5392315;26;20016;-69
2024/04/18 01:19:28;;;;;;;1.85;0.32;;;;;;;1.82;53.25;101469.81;5389661;26;20014;-69
2024/04/18 01:21:55;;;;;;;4.60;0.30;;;;;;;1.78;53.09;101468.94;5398495;26;20814;-68
2024/04/18 01:24:20;;;;;;;2.75;0.10;;;;;;;1.75;53.24;101468.91;5397196;26;20013;-68
2024/04/18 01:26:46;;;;;;;2.13;0.30;;;;;;;1.75;54.21;101468.06;5394557;26;20075;-67
2024/04/18 01:29:11;;;;;;;3.10;0.30;;;;;;;1.81;53.92;101468.09;5398321;26;20567;-68
2024/04/18 01:31:57;;;;;;;1.83;0.22;;;;;;;1.80;54.17;101471.53;5401354;26;20001;-69
2024/04/18 01:34:23;;;;;;;3.80;0.40;;;;;;;1.82;54.05;101475.84;5392426;26;20120;-69
2024/04/18 01:37:10;;;;;;;4.90;0.60;;;;;;;1.79;54.11;101480.97;5396309;26;19999;-69
2024/04/18 01:39:36;;;;;;;3.88;0.52;;;;;;;1.82;54.12;101481.00;5390057;26;20019;-70
2024/04/18 01:42:04;;;;;;;6.85;0.40;;;;;;;1.80;54.09;101479.28;5426842;26;20548;-70
2024/04/18 01:44:43;;;;;;;1.98;0.20;;;;;;;1.79;53.90;101486.13;5389882;26;20070;-70
2024/04/18 01:47:27;;;;;;;1.92;0.20;;;;;;;1.75;54.04;101478.38;5393041;26;20553;-69
2024/04/18 01:50:06;;;;;;;0.80;0.22;;;;;;;1.75;54.39;101476.63;5362904;26;20014;-70
2024/04/18 01:52:31;;;;;;;12.05;0.47;;;;;;;1.80;54.11;101476.69;5394925;26;20011;-73
2024/04/18 01:55:02;;;;;;;2.25;0.50;;;;;;;1.86;54.34;101477.59;5352131;26;20011;-72
2024/04/18 01:57:37;;;;;;;1.88;0.40;;;;;;;1.91;54.48;101486.22;5338547;26;20061;-73
2024/04/18 02:00:22;;;;;;;5.50;0.35;;;;;;;2.02;54.26;101478.53;5385105;26;20020;-72
2024/04/18 02:02:47;;;;;;;6.93;0.40;;;;;;;2.07;54.64;101483.72;5408233;26;20003;-71
2024/04/18 02:05:33;;;;;;;0.90;0.15;;;;;;;2.09;54.14;101476.84;5405256;26;20015;-71
2024/04/18 02:08:14;;;;;;;5.07;0.13;;;;;;;2.13;54.30;101487.19;5388762;26;20076;-71
2024/04/18 02:10:49;;;;;;;0.82;0.30;;;;;;;2.10;54.24;101482.00;5398976;26;20164;-72
2024/04/18 02:13:34;;;;;;;1.77;0.10;;;;;;;2.04;54.18;101487.16;5396433;26;20065;-72
2024/04/18 02:16:01;;;;;;;4.43;0.38;;;;;;;2.01;53.97;101481.09;5397111;26;21725;-72
2024/04/18 02:18:45;;;;;;;1.85;0.40;;;;;;;1.97;54.46;101485.38;5365287;26;20000;-73
2024/04/18 02:21:11;;;;;;;2.78;0.22;;;;;;;1.94;54.46;101491.38;5387456;26;20030;-74
2024/04/18 02:23:49;;;;;;;3.25;0.20;;;;;;;1.87;54.37;101487.03;5372015;26;20003;-74
2024/04/18 02:26:14;;;;;;;3.17;0.82;;;;;;;1.84;54.09;101494.78;5360117;26;20019;-71
2024/04/18 02:28:40;;;;;;;0.65;0.20;;;;;;;1.79;54.21;101486.13;5371821;26;20011;-70
2024/04/18 02:31:17;;;;;;;3.60;0.30;;;;;;;1.85;54.30;101488.75;5395125;26;20056;-72
2024/04/18 02:33:48;;;;;;;1.40;0.30;;;;;;;1.85;54.19;101495.63;5401583;26;20493;-70
2024/04/18 02:36:14;;;;;;;1.50;0.50;;;;;;;1.84;53.81;101499.03;5394187;26;20011;-72
2024/04/18 02:38:39;;;;;;;5.22;0.30;;;;;;;1.80;53.96;101498.19;5393265;26;19999;-71
2024/04/18 02:41:06;;;;;;;4.95;0.22;;;;;;;1.81;53.61;101507.63;5394576;26;20015;-71
2024/04/18 02:43:50;;;;;;;;;;;;;;;1.74;54.20;101505.84;5396739;26;20022;-72
2024/04/18 02:46:15;;;;;;;1.00;0.13;;;;;;;1.71;53.76;101511.84;5396700;26;19932;-72
2024/04/18 02:49:01;;;;;;;3.28;0.73;;;;;;;1.80;53.79;101500.75;5374735;26;20007;-72
2024/04/18 02:51:26;;;;;;;4.15;0.20;;;;;;;1.79;54.23;101508.47;5353197;26;20016;-72
2024/04/18 02:54:13;;;;;;;2.40;0.20;;;;;;;1.82;54.04;101514.50;5354853;26;20341;-71
2024/04/18 02:56:40;;;;;;;0.70;0.35;;;;;;;1.77;54.23;101518.75;5352762;26;20015;-72
2024/04/18 02:59:12;;;;;;;4.28;0.75;;;;;;;1.93;53.86;101509.44;5358559;25;20361;-73
2024/04/18 03:01:46;;;;;;;3.35;0.55;;;;;;;1.88;53.74;101511.94;5336839;26;20021;-73
2024/04/18 03:04:12;;;;;;;3.58;0.43;;;;;;;1.90;53.78;101514.56;5381494;26;20330;-71
2024/04/18 03:06:37;;;;;;;1.35;0.17;;;;;;;1.86;53.83;101513.69;5394428;26;22078;-71
2024/04/18 03:09:09;;;;;;;2.83;0.40;;;;;;;1.87;53.84;101525.72;5395172;25;20015;-71
2024/04/18 03:11:51;;;;;;;;;;;;;;;1.98;53.97;101523.22;5401347;26;20499;-71
2024/04/18 03:14:16;;;;;;;1.60;0.13;;;;;;;1.97;54.25;101530.94;5399792;25;20381;-71
2024/04/18 03:16:58;;;;;;;3.97;1.23;;;;;;;2.05;54.18;101530.13;5391562;26;20014;-66
2024/04/18 03:19:43;;;;;;;1.83;0.22;;;;;;;2.09;53.72;101537.03;5396634;25;20007;-67
2024/04/18 03:22:24;;;;;;;2.97;0.75;;;;;;;2.08;53.98;101540.44;5396345;26;20053;-67
2024/04/18 03:24:59;;;;;;;1.63;0.30;;;;;;;2.14;54.22;101535.31;5395488;26;20014;-67
2024/04/18 03:27:25;;;;;;;2.88;0.30;;;;;;;2.23;54.06;101534.50;5393860;26;21838;-67
2024/04/18 03:29:51;;;;;;;1.98;0.20;;;;;;;2.28;53.79;101537.97;5393196;26;20584;-67
2024/04/18 03:32:31;;;;;;;6.53;0.73;;;;;;;2.23;54.06;101550.00;5397564;26;20014;-68
2024/04/18 03:34:57;;;;;;;5.30;0.73;;;;;;;2.27;54.01;101550.88;5389134;26;20039;-67
2024/04/18 03:37:23;;;;;;;3.75;0.52;;;;;;;2.34;54.43;101553.50;5393790;26;20013;-72
2024/04/18 03:39:48;;;;;;;2.28;0.20;;;;;;;2.43;54.58;101551.81;5402084;25;20007;-72
2024/04/18 03:42:14;;;;;;;1.08;0.28;;;;;;;2.49;54.58;101559.59;5393905;26;20014;-72
2024/04/18 03:44:52;;;;;;;1.45;0.30;;;;;;;2.48;54.64;101553.56;5390503;26;20780;-72
2024/04/18 03:47:18;;;;;;;2.28;0.50;;;;;;;2.51;54.77;101550.13;5391100;26;20003;-72
2024/04/18 03:50:04;;;;;;;4.90;0.55;;;;;;;2.67;55.36;101551.94;5391136;26;20016;-70
2024/04/18 03:52:39;;;;;;;1.65;0.30;;;;;;;2.80;55.48;101557.13;5394471;26;20002;-72
2024/04/18 03:55:23;;;;;;;3.15;0.52;;;;;;;3.02;55.11;101561.47;5389433;26;20402;-71
2024/04/18 03:57:48;;;;;;;4.43;0.60;;;;;;;3.15;55.03;101563.25;5397268;25;20026;-71
2024/04/18 04:00:14;;;;;;;1.75;0.13;;;;;;;3.16;54.98;101562.41;5348049;26;20509;-70
2024/04/18 04:02:39;;;;;;;1.80;0.45;;;;;;;3.21;55.75;101569.28;5358521;26;20713;-71
2024/04/18 04:05:05;;;;;;;1.27;0.10;;;;;;;3.31;55.38;101566.72;5362210;26;20008;-70
2024/04/18 04:07:31;;;;;;;4.13;0.10;;;;;;;3.52;55.25;101565.06;5347747;26;20084;-68
2024/04/18 04:09:56;;;;;;;1.13;0.22;;;;;;;3.53;55.42;101565.03;5355096;25;20013;-68
2024/04/18 04:12:21;;;;;;;1.85;0.40;;;;;;;3.62;55.29;101571.09;5345229;26;20010;-69
2024/04/18 04:15:06;;;;;;;1.75;0.52;;;;;;;3.67;55.44;101574.53;5401890;26;20007;-69
2024/04/18 04:17:32;;;;;;;2.50;0.15;;;;;;;3.65;55.33;101581.41;5399223;26;20065;-69
2024/04/18 04:20:07;;;;;;;1.05;0.20;;;;;;;3.78;54.87;101583.13;5361621;26;20027;-69
2024/04/18 04:22:32;;;;;;;3.72;0.50;;;;;;;3.76;54.59;101574.50;5342400;26;20026;-70
2024/04/18 04:25:18;;;;;;;0.70;0.20;;;;;;;3.83;54.77;101581.44;5362484;26;20276;-70
2024/04/18 04:27:43;;;;;;;6.30;0.40;;;;;;;3.84;54.17;101585.72;5358815;26;20825;-73
2024/04/18 04:30:09;;;;;;;6.05;0.30;;;;;;;3.85;54.59;101587.47;5361226;26;20004;-73
2024/04/18 04:32:35;;;;;;;2.38;0.45;;;;;;;3.98;54.04;101591.78;5332617;26;20020;-70
2024/04/18 04:35:20;;;;;;;1.17;0.17;;;;;;;4.08;54.20;101592.59;5357141;26;20016;-70
2024/04/18 04:37:46;;;;;;;2.92;0.30;;;;;;;4.12;53.74;101588.28;5353108;26;20000;-70
2024/04/18 04:40:11;;;;;;;3.83;0.35;;;;;;;3.91;54.23;101590.03;5355437;26;20052;-70
2024/04/18 04:42:37;;;;;;;5.20;0.35;;;;;;;4.04;53.83;101595.19;5357033;26;20407;-71
2024/04/18 04:45:03;;;;;;;2.55;1.08;;;;;;;4.09;54.04;101588.28;5379413;26;20003;-72
2024/04/18 04:47:28;;;;;;;2.45;0.68;;;;;;;4.15;53.91;101596.06;5353441;26;20023;-70
2024/04/18 04:49:54;;;;;;;0.73;0.50;;;;;;;4.18;54.09;101599.47;5358882;26;20300;-71
2024/04/18 04:52:35;;;;;;;1.77;0.45;;;;;;;4.22;53.82;101602.94;5355131;26;20003;-71
2024/04/18 04:55:16;;;;;;;3.15;0.20;;;;;;;4.33;53.92;101597.75;5344489;26;20211;-71
2024/04/18 04:57:41;;;;;;;0.82;0.20;;;;;;;4.40;53.78;101597.69;5359060;26;20609;-71
2024/04/18 05:00:19;;;;;;;0.90;0.10;;;;;;;4.47;53.93;101608.91;5348466;26;21936;-71
2024/04/18 05:02:54;;;;;;;1.50;0.38;;;;;;;4.51;53.65;101604.59;5365777;26;20435;-71
2024/04/18 05:05:19;;;;;;;1.88;0.30;;;;;;;4.53;53.49;101610.63;5357055;26;21086;-71
2024/04/18 05:08:01;;;;;;;2.10;0.43;;;;;;;4.60;53.60;101604.56;5365683;26;20062;-72
2024/04/18 05:10:43;;;;;;;2.42;0.22;;;;;;;4.63;53.60;101609.72;5363898;26;20015;-71
2024/04/18 05:13:09;;;;;;;1.85;0.30;;;;;;;4.66;53.54;101609.72;5370167;26;20022;-72
2024/04/18 05:15:34;;;;;;;4.82;0.45;;;;;;;4.69;53.33;101609.69;5350062;26;20375;-71
2024/04/18 05:18:00;;;;;;;4.78;0.43;;;;;;;4.80;53.47;101610.53;5372920;26;20558;-71
2024/04/18 05:20:25;;;;;;;3.90;0.20;;;;;;;4.84;53.67;101622.59;5388750;26;20017;-71
2024/04/18 05:22:51;;;;;;;5.35;0.10;;;;;;;4.94;53.31;101620.00;5400707;26;20003;-70
2024/04/18 05:25:16;;;;;;;0.73;0.10;;;;;;;4.98;53.10;101617.38;5393182;26;20006;-71
2024/04/18 05:27:55;;;;;;;1.00;0.22;;;;;;;5.06;53.45;101627.72;5402261;26;20007;-72
2024/04/18 05:33:16;;;;;;;3.72;0.35;;;;;;;5.09;53.23;101627.69;5396792;26;20010;-74
2024/04/18 05:35:42;;;;;;;1.63;0.47;;;;;;;5.16;53.20;101629.38;5386598;26;20081;-74
2024/04/18 05:38:07;;;;;;;2.03;0.43;;;;;;;5.37;53.20;101628.41;5395760;26;20515;-70
2024/04/18 05:40:32;;;;;;;1.67;0.70;;;;;;;6.24;52.89;101629.44;5398855;26;20651;-69
2024/04/18 05:42:58;;;;;;;2.97;1.10;;;;;;;6.73;49.84;101630.69;5395908;26;20014;-70
2024/04/18 05:45:47;;;;;;;3.50;0.60;;;;;;;8.30;47.05;101636.19;5372947;26;20008;-71
2024/04/18 05:48:13;;;;;;;4.35;0.47;;;;;;;9.08;43.62;101636.41;5397564;25;20040;-72
2024/04/18 05:50:38;;;;;;;3.10;0.30;;;;;;;9.35;44.53;101635.78;5392164;26;20422;-72
2024/04/18 05:53:04;;;;;;;4.60;0.40;;;;;;;9.82;41.86;101639.97;5403529;26;20767;-70
2024/04/18 05:55:48;;;;;;;1.33;0.20;;;;;;;10.30;41.62;101643.03;5389318;26;20007;-70
2024/04/18 05:58:16;;;;;;;4.40;0.47;;;;;;;10.73;39.04;101636.66;5394262;26;20072;-70
2024/04/18 06:00:53;;;;;;;6.15;0.70;;;;;;;9.88;41.15;101639.78;5398000;26;20016;-71
2024/04/18 06:03:19;;;;;;;5.63;0.38;;;;;;;9.46;42.29;101648.59;5378612;26;20007;-71
2024/04/18 06:05:45;;;;;;;1.67;0.20;;;;;;;9.03;43.34;101643.44;5366180;26;20018;-70
2024/04/18 06:08:14;;;;;;;2.58;0.20;;;;;;;9.92;42.24;101652.75;5353900;26;20013;-70
2024/04/18 06:10:41;;;;;;;5.45;0.20;;;;;;;10.35;40.69;101650.78;5360927;26;20012;-70
2024/04/18 06:13:22;;;;;;;1.85;0.60;;;;;;;9.49;40.83;101645.91;5351444;26;20007;-69
2024/04/18 06:15:48;;;;;;;2.00;0.40;;;;;;;8.89;42.54;101655.03;5361321;26;20011;-70
2024/04/18 06:18:14;;;;;;;1.75;0.10;;;;;;;8.73;43.19;101656.22;5356010;26;20010;-69
2024/04/18 06:20:46;;;;;;;2.38;0.30;;;;;;;8.51;42.58;101661.81;5374093;26;20032;-76
2024/04/18 06:23:11;;;;;;;;;;;;;;;8.39;44.18;101667.25;5376775;26;20079;-78
2024/04/18 06:25:37;;;;;;;2.92;0.40;;;;;;;8.20;44.12;101669.31;5365266;26;21036;-75
2024/04/18 06:28:12;;;;;;;3.00;0.20;;;;;;;7.31;45.85;101674.16;5369768;26;20008;-76
2024/04/18 06:30:39;;;;;;;1.30;0.43;;;;;;;7.20;46.42;101668.22;5364080;26;21980;-77
2024/04/18 06:33:10;;;;;;;1.63;0.65;;;;;;;9.21;43.06;101669.16;5376132;26;20002;-77
2024/04/18 06:35:35;;;;;;;7.00;0.50;;;;;;;9.97;40.70;101673.53;5390492;26;20023;-72
2024/04/18 06:38:02;;;;;;;2.92;0.60;;;;;;;11.54;38.49;101667.41;5403463;26;20017;-70
2024/04/18 06:40:27;;;;;;;0.88;0.75;;;;;;;14.64;35.95;101667.19;5391185;26;20019;-77
2024/04/18 06:42:55;;;;;;;8.73;0.47;;;;;;;16.97;29.73;101668.88;5398944;26;23942;-75
2024/04/18 06:45:21;;;;;;;2.63;0.20;;;;;;;18.75;25.65;101665.63;5390809;26;20006;-72
2024/04/18 06:47:48;;;;;;;5.00;0.60;;;;;;;18.69;26.70;101666.00;5393020;26;20019;-73
2024/04/18 06:50:16;;;;;;;1.67;0.25;;;;;;;18.98;25.33;101660.72;5374359;26;20015;-69
2024/04/18 06:52:42;;;;;;;1.83;0.25;;;;;;;19.88;25.05;101664.56;5384103;26;20010;-71
2024/04/18 06:55:08;;;;;;;1.33;0.20;;;;;;;19.97;25.89;101663.09;5408245;26;20102;-72
2024/04/18 06:57:43;;;;;;;3.63;0.68;;;;;;;20.69;22.52;101666.97;5386474;25;20105;-70
2024/04/18 07:00:13;;;;;;;3.67;0.28;;;;;;;20.48;23.31;101669.31;5401131;26;20006;-70
2024/04/18 07:02:39;;;;;;;1.67;0.10;;;;;;;18.88;25.42;101669.25;5377848;26;20044;-72
2024/04/18 07:05:23;;;;;;;3.38;0.20;;;;;;;20.06;23.00;101666.00;5390225;26;20017;-71
2024/04/18 07:07:53;;;;;;;3.33;0.20;;;;;;;18.03;25.78;101675.28;5392647;26;20236;-71
2024/04/18 07:10:31;;;;;;;;;;;;;;;14.47;31.29;101678.44;5392422;26;20056;-71
2024/04/18 07:12:57;;;;;;;7.82;0.30;;;;;;;12.05;34.87;101684.97;5360092;26;19924;-71
2024/04/18 07:15:22;;;;;;;2.30;0.20;;;;;;;10.82;36.68;101687.88;5389286;26;20413;-71
2024/04/18 07:18:08;;;;;;;1.08;0.20;;;;;;;9.35;38.82;101679.28;5396398;25;20011;-69
2024/04/18 07:20:34;;;;;;;2.20;0.40;;;;;;;8.76;40.75;101693.53;5389887;26;19999;-71
2024/04/18 07:23:05;;;;;;;;;;;;;;;9.79;41.29;101695.69;5376425;26;20008;-71
2024/04/18 07:25:32;;;;;;;5.90;0.30;;;;;;;12.76;34.49;101681.69;5383263;26;19925;-72
2024/04/18 07:27:57;;;;;;;2.15;0.30;;;;;;;14.13;31.43;101691.22;5361851;26;20068;-70
2024/04/18 07:30:23;;;;;;;0.50;0.10;;;;;;;12.29;33.14;101687.69;5390470;26;20003;-71
2024/04/18 07:32:51;;;;;;;2.85;0.30;;;;;;;10.47;36.07;101697.47;5391928;26;20022;-70
2024/04/18 07:35:36;;;;;;;5.68;0.47;;;;;;;8.83;39.63;101709.91;5388813;26;20006;-76
2024/04/18 07:38:03;;;;;;;0.75;0.25;;;;;;;9.01;40.05;101697.38;5361978;26;20900;-71
2024/04/18 07:40:29;;;;;;;2.25;0.30;;;;;;;12.45;34.26;101690.63;5351000;26;20016;-74
2024/04/18 07:42:55;;;;;;;1.77;0.30;;;;;;;15.32;29.79;101686.00;5366624;26;20043;-70
2024/04/18 07:45:21;;;;;;;1.30;0.10;;;;;;;17.05;27.02;101681.66;5400229;26;20019;-71
2024/04/18 07:47:48;;;;;;;6.30;0.17;;;;;;;14.84;28.44;101692.59;5389583;26;20002;-68
2024/04/18 07:50:14;;;;;;;3.33;0.10;;;;;;;12.20;32.69;101698.47;5402494;26;20066;-71
2024/04/18 07:52:40;;;;;;;4.05;0.20;;;;;;;9.78;36.94;101713.06;5386710;25;20326;-71
2024/04/18 07:55:06;;;;;;;4.43;0.40;;;;;;;9.13;39.27;101702.34;5400860;26;20635;-71
2024/04/18 07:57:32;;;;;;;4.15;0.35;;;;;;;8.71;40.03;101717.94;5382775;26;20015;-70
2024/04/18 07:59:57;;;;;;;5.25;0.35;;;;;;;8.56;40.49;101714.72;5362234;26;20093;-72
2024/04/18 08:02:23;;;;;;;2.75;0.22;;;;;;;8.44;40.96;101714.91;5361608;26;20011;-71
2024/04/18 08:04:49;;;;;;;5.22;0.30;;;;;;;8.39;41.34;101716.75;5350237;26;20084;-72
2024/04/18 08:07:15;;;;;;;2.83;0.10;;;;;;;8.20;40.95;101715.34;5394250;26;20029;-71
2024/04/18 08:09:40;;;;;;;4.15;0.20;;;;;;;8.49;41.60;101707.88;5350292;26;20008;-71
2024/04/18 08:12:06;;;;;;;5.13;0.30;;;;;;;8.30;41.72;101719.53;5362137;26;20003;-71
2024/04/18 08:14:31;;;;;;;1.52;0.25;;;;;;;8.39;40.24;101721.97;5349186;26;20007;-72
2024/04/18 08:16:57;;;;;;;1.05;0.17;;;;;;;8.40;40.43;101726.28;5312484;26;19999;-70
2024/04/18 08:19:22;;;;;;;1.25;0.10;;;;;;;8.34;40.78;101726.41;5353653;26;20051;-70
2024/04/18 08:21:48;;;;;;;2.15;0.20;;;;;;;8.15;40.67;101729.28;5351140;26;20088;-72
2024/04/18 08:24:21;;;;;;;4.05;0.10;;;;;;;8.18;41.47;101730.97;5382631;26;20512;-72
2024/04/18 08:26:47;;;;;;;2.00;0.15;;;;;;;7.31;42.20;101752.16;5387452;26;20009;-71
2024/04/18 08:29:13;;;;;;;3.40;0.10;;;;;;;6.95;43.33;101750.81;5397665;25;20054;-71
2024/04/18 08:31:39;;;;;;;1.85;0.52;;;;;;;7.00;43.27;101759.44;5392751;26;20000;-70
2024/04/18 08:34:05;;;;;;;9.23;0.30;;;;;;;6.82;43.28;101754.41;5348785;26;20758;-72
2024/04/18 08:36:30;;;;;;;3.30;0.10;;;;;;;7.23;43.56;101747.94;5380878;26;20364;-70
2024/04/18 08:38:56;;;;;;;1.33;0.10;;;;;;;7.53;42.66;101744.06;5357040;26;20317;-71
2024/04/18 08:41:21;;;;;;;4.25;0.15;;;;;;;7.91;42.79;101750.50;5400521;26;20445;-71
2024/04/18 08:43:47;;;;;;;1.50;0.15;;;;;;;8.01;41.61;101756.44;5414862;26;20025;-71
2024/04/18 08:46:15;;;;;;;2.05;0.52;;;;;;;9.25;40.06;101751.66;5369664;26;20003;-71
2024/04/18 08:48:42;;;;;;;2.67;0.10;;;;;;;10.97;37.22;101752.84;5332077;26;20003;-70
2024/04/18 08:51:08;;;;;;;2.05;0.10;;;;;;;11.03;37.34;101755.25;5360019;26;20003;-71
2024/04/18 08:53:34;;;;;;;1.23;0.10;;;;;;;10.77;34.90;101755.06;5371949;26;20136;-72
2024/04/18 08:56:01;;;;;;;1.45;0.10;;;;;;;10.05;37.19;101747.31;5391822;26;20053;-70
2024/04/18 08:58:27;;;;;;;0.80;0.10;;;;;;;9.57;38.32;101748.38;5404547;26;20003;-71
2024/04/18 09:00:54;;;;;;;2.63;0.10;;;;;;;9.64;38.55;101751.72;5365611;26;20845;-71
2024/04/18 09:03:24;;;;;;;2.42;0.20;;;;;;;9.21;38.96;101736.97;5407443;26;20004;-71
2024/04/18 09:05:50;;;;;;;0.50;0.10;;;;;;;8.49;37.93;101752.16;5389769;26;22528;-72
2024/04/18 09:08:16;;;;;;;1.27;0.30;;;;;;;9.06;37.38;101742.50;5398694;26;20015;-71
2024/04/18 09:10:42;;;;;;;1.45;0.20;;;;;;;9.66;35.87;101742.09;5389572;26;20062;-72
2024/04/18 09:13:08;;;;;;;1.85;0.25;;;;;;;10.51;34.47;101740.94;5394965;26;20002;-71
2024/04/18 09:15:34;;;;;;;0.90;0.10;;;;;;;11.11;34.12;101741.97;5385723;26;20010;-71
2024/04/18 09:18:05;;;;;;;0.40;0.10;;;;;;;11.92;31.42;101735.22;5385132;26;19999;-71
2024/04/18 09:20:35;;;;;;;0.57;0.10;;;;;;;11.79;32.35;101734.75;5396151;26;20007;-71
2024/04/18 09:23:01;;;;;;;5.65;0.38;;;;;;;11.12;32.66;101742.81;5394383;26;20023;-73
2024/04/18 09:25:27;;;;;;;1.27;0.20;;;;;;;10.78;33.06;101738.50;5375244;26;20430;-72
2024/04/18 09:27:52;;;;;;;2.70;0.43;;;;;;;11.04;33.04;101743.91;5345991;26;20554;-71
2024/04/18 09:30:18;;;;;;;1.15;0.10;;;;;;;10.92;32.05;101749.47;5341290;26;20015;-71
2024/04/18 09:32:44;;;;;;;0.32;0.03;;;;;;;11.51;32.76;101734.69;5354845;26;20057;-71
2024/04/18 09:35:11;;;;;;;1.38;0.00;;;;;;;11.78;31.67;101733.03;5395351;26;20002;-71
2024/04/18 09:37:40;;;;;;;0.77;0.10;;;;;;;10.78;31.24;101739.34;5375991;26;20101;-71
2024/04/18 09:40:11;;;;;;;3.03;0.10;;;;;;;10.50;32.64;101744.44;5356214;26;19999;-71
2024/04/18 09:42:47;;;;;;;0.65;0.10;;;;;;;10.04;32.36;101743.00;5323117;26;20106;-71
2024/04/18 09:45:17;;;;;;;0.17;0.10;;;;;;;10.62;32.28;101738.91;5358378;26;20008;-72
2024/04/18 09:47:44;;;;;;;5.50;0.75;;;;;;;11.12;31.93;101742.81;5349433;26;20011;-71
2024/04/18 09:50:12;;;;;;;0.98;0.10;;;;;;;12.18;31.33;101737.84;5389863;26;20015;-72
2024/04/18 09:52:39;;;;;;;1.95;0.20;;;;;;;11.98;29.60;101740.28;5415969;26;20042;-70
2024/04/18 09:55:05;;;;;;;0.40;0.10;;;;;;;12.45;29.87;101735.22;5391190;26;20006;-71
2024/04/18 09:57:30;;;;;;;2.45;0.30;;;;;;;12.62;29.91;101732.00;5392930;26;20002;-70
2024/04/18 09:59:59;;;;;;;0.30;0.10;;;;;;;10.85;31.43;101745.31;5387321;26;20002;-71
2024/04/18 10:02:28;;;;;;;1.15;0.10;;;;;;;11.03;31.94;101755.25;5401498;26;20018;-71
2024/04/18 10:04:55;;;;;;;2.45;0.30;;;;;;;11.61;31.33;101742.22;5390095;26;20010;-71
2024/04/18 10:07:24;;;;;;;6.85;0.10;;;;;;;11.36;31.96;101760.44;5391024;26;20013;-71
2024/04/18 10:09:51;;;;;;;3.60;0.10;;;;;;;11.56;31.31;101759.84;5366285;26;20007;-71
2024/04/18 10:12:18;;;;;;;8.13;0.10;;;;;;;11.09;32.61;101750.78;5404204;26;20003;-72
2024/04/18 10:14:43;;;;;;;5.18;0.40;;;;;;;10.10;32.68;101749.81;5338717;26;20083;-71
2024/04/18 10:17:21;;;;;;;2.25;0.20;;;;;;;9.98;33.01;101748.34;5332603;26;20550;-71
2024/04/18 10:19:47;;;;;;;0.45;0.10;;;;;;;9.86;32.53;101756.50;5328907;26;20050;-72
2024/04/18 10:22:14;;;;;;;3.45;0.15;;;;;;;9.13;34.05;101754.50;5339833;26;20007;-72
2024/04/18 10:24:39;;;;;;;3.00;0.10;;;;;;;9.83;33.20;101753.94;5347733;26;20107;-71
2024/04/18 10:27:11;;;;;;;2.65;0.10;;;;;;;10.95;31.40;101751.13;5346658;26;20018;-73
2024/04/18 10:29:37;;;;;;;0.57;0.10;;;;;;;11.70;31.16;101751.56;5367598;26;20003;-72
2024/04/18 10:32:03;;;;;;;1.10;0.10;;;;;;;11.80;31.38;101757.44;5416838;26;20011;-72
2024/04/18 10:34:30;;;;;;;2.50;0.38;;;;;;;11.46;30.67;101759.28;5396005;25;20013;-71
2024/04/18 10:36:56;;;;;;;3.97;0.10;;;;;;;10.68;31.64;101760.56;5354102;26;20019;-72
2024/04/18 10:39:30;;;;;;;3.70;0.20;;;;;;;10.12;32.82;101759.31;5407038;26;20006;-71
2024/04/18 10:42:02;;;;;;;1.27;0.43;;;;;;;10.33;32.77;101767.56;5388921;26;20172;-72
2024/04/18 10:44:29;;;;;;;2.30;0.20;;;;;;;10.54;31.80;101777.44;5404128;25;20021;-71
2024/04/18 10:46:55;;;;;;;1.85;0.10;;;;;;;10.49;31.67;101774.09;5380940;26;20006;-72
2024/04/18 10:49:24;;;;;;;1.95;0.10;;;;;;;10.31;31.97;101769.34;5397787;26;20095;-71
2024/04/18 10:51:50;;;;;;;0.20;0.08;;;;;;;10.46;30.48;101762.84;5386849;26;20014;-72
2024/04/18 10:54:17;;;;;;;3.17;0.10;;;;;;;11.06;30.38;101770.00;5369406;26;20004;-72
2024/04/18 10:56:43;;;;;;;1.45;0.20;;;;;;;10.96;31.24;101769.41;5325637;26;20017;-71
2024/04/18 10:59:10;;;;;;;0.38;0.10;;;;;;;10.21;31.97;101766.06;5335143;26;20008;-71
2024/04/18 11:01:39;;;;;;;2.65;0.20;;;;;;;9.46;33.29;101771.22;5391341;26;20031;-71
2024/04/18 11:04:05;;;;;;;1.92;0.20;;;;;;;9.49;34.03;101775.53;5381634;26;20031;-71
2024/04/18 11:06:32;;;;;;;2.85;0.20;;;;;;;9.39;35.54;101782.69;5391105;26;20010;-70
2024/04/18 11:09:01;;;;;;;0.90;0.17;;;;;;;8.83;36.31;101782.03;5364812;26;20402;-71
2024/04/18 11:11:27;;;;;;;4.20;0.50;;;;;;;7.57;39.44;101778.75;5388565;26;20014;-70
2024/04/18 11:13:55;;;;;;;1.30;0.10;;;;;;;8.24;38.91;101787.34;5389558;26;20556;-71
2024/04/18 11:16:21;;;;;;;1.63;0.10;;;;;;;8.56;39.28;101795.50;5400231;26;20594;-70
2024/04/18 11:18:47;;;;;;;3.42;0.77;;;;;;;9.06;37.44;101792.91;5391873;25;20027;-71
2024/04/18 11:21:16;;;;;;;3.35;0.10;;;;;;;9.01;36.53;101788.63;5392428;26;20030;-70
2024/04/18 11:23:42;;;;;;;3.40;0.35;;;;;;;8.90;36.58;101779.28;5392825;25;19999;-71
2024/04/18 11:26:10;;;;;;;1.90;0.25;;;;;;;9.95;35.16;101780.63;5401941;26;20007;-70
2024/04/18 11:28:36;;;;;;;1.98;0.57;;;;;;;10.55;34.72;101773.09;5412365;26;20535;-71
2024/04/18 11:31:03;;;;;;;2.10;0.30;;;;;;;10.98;35.26;101769.38;5392849;26;20017;-71
2024/04/18 11:33:28;;;;;;;1.25;0.20;;;;;;;11.61;34.91;101765.78;5395880;26;23591;-72
2024/04/18 11:35:55;;;;;;;1.33;0.38;;;;;;;10.89;34.31;101773.09;5361718;26;20007;-70
2024/04/18 11:38:21;;;;;;;2.13;0.15;;;;;;;11.72;32.42;101760.22;5359383;26;20014;-72
2024/04/18 11:40:46;;;;;;;4.85;0.55;;;;;;;11.83;32.04;101763.41;5350771;26;19998;-71
2024/04/18 11:43:12;;;;;;;1.08;0.10;;;;;;;11.64;30.89;101754.38;5387081;26;20011;-71
2024/04/18 11:45:39;;;;;;;5.85;0.68;;;;;;;11.31;30.95;101764.06;5399680;26;20025;-70